createdAt,value
2022-10-15T00:01:46.090Z,8.88
2022-10-15T00:04:13.731Z,8.60
2022-10-15T00:06:41.272Z,9.98
2022-10-15T00:09:08.796Z,10.38
2022-10-15T00:11:36.979Z,9.43
2022-10-15T00:14:04.741Z,10.30
2022-10-15T00:16:34.129Z,10.85
2022-10-15T00:19:01.684Z,10.25
2022-10-15T00:21:29.385Z,11.23
2022-10-15T00:23:58.105Z,11.70
2022-10-15T00:26:27.959Z,11.10
2022-10-15T00:28:57.925Z,11.18
2022-10-15T00:31:27.250Z,11.90
2022-10-15T00:33:58.118Z,11.50
2022-10-15T00:36:27.370Z,10.68
2022-10-15T00:38:55.407Z,9.90
2022-10-15T00:41:25.225Z,10.85
2022-10-15T00:43:54.661Z,11.32
2022-10-15T00:46:25.963Z,10.40
2022-10-15T00:48:59.325Z,11.02
2022-10-15T00:51:30.939Z,11.85
2022-10-15T00:53:59.861Z,12.38
2022-10-15T00:56:29.720Z,9.80
2022-10-15T00:58:58.028Z,12.30
2022-10-15T01:01:26.220Z,11.07
2022-10-15T01:03:55.438Z,9.95
2022-10-15T01:06:25.026Z,11.73
2022-10-15T01:08:52.875Z,13.00
2022-10-15T01:11:31.798Z,13.82
2022-10-15T01:14:15.627Z,13.65
2022-10-15T01:16:48.834Z,14.68
2022-10-15T01:19:29.579Z,13.18
2022-10-15T01:22:05.235Z,14.10
2022-10-15T01:24:44.951Z,14.70
2022-10-15T01:27:26.087Z,15.50
2022-10-15T01:30:24.525Z,15.10
2022-10-15T01:33:22.018Z,15.40
2022-10-15T01:35:52.642Z,15.77
2022-10-15T01:38:39.859Z,16.52
2022-10-15T01:41:12.256Z,16.42
2022-10-15T01:43:46.712Z,15.27
2022-10-15T01:46:33.490Z,14.77
2022-10-15T01:49:06.865Z,15.75
2022-10-15T01:51:36.565Z,16.27
2022-10-15T01:54:08.253Z,16.45
2022-10-15T01:56:38.343Z,17.00
2022-10-15T01:59:08.273Z,16.48
2022-10-15T02:01:35.974Z,16.17
2022-10-15T02:04:20.271Z,16.80
2022-10-15T02:06:51.324Z,17.30
2022-10-15T02:09:28.068Z,18.60
2022-10-15T02:12:05.449Z,16.70
2022-10-15T02:14:37.594Z,17.55
2022-10-15T02:17:10.106Z,16.55
2022-10-15T02:19:46.981Z,16.73
2022-10-15T02:22:17.786Z,16.30
2022-10-15T02:24:55.352Z,17.92
2022-10-15T02:27:25.185Z,17.23
2022-10-15T02:29:55.019Z,13.68
2022-10-15T02:32:24.809Z,17.23
2022-10-15T02:34:54.825Z,19.05
2022-10-15T02:37:26.739Z,18.70
2022-10-15T02:39:54.493Z,17.65
2022-10-15T02:42:23.116Z,17.38
2022-10-15T02:44:50.954Z,17.63
2022-10-15T02:47:18.663Z,17.17
2022-10-15T02:49:47.284Z,14.50
2022-10-15T02:52:16.341Z,15.13
2022-10-15T02:54:44.008Z,16.83
2022-10-15T02:57:11.802Z,14.30
2022-10-15T02:59:42.960Z,14.57
2022-10-15T03:02:15.269Z,13.82
2022-10-15T03:04:46.367Z,13.57
2022-10-15T03:07:16.656Z,14.30
2022-10-15T03:09:44.678Z,13.15
2022-10-15T03:12:12.490Z,13.85
2022-10-15T03:14:40.003Z,12.77
2022-10-15T03:17:07.632Z,13.65
2022-10-15T03:19:35.956Z,12.88
2022-10-15T03:22:03.593Z,14.60
2022-10-15T03:24:42.941Z,14.40
2022-10-15T03:27:11.620Z,13.23
2022-10-15T03:29:39.325Z,13.35
2022-10-15T03:32:07.874Z,14.32
2022-10-15T03:34:35.434Z,15.45
2022-10-15T03:37:03.193Z,14.80
2022-10-15T03:39:31.151Z,14.25
2022-10-15T03:42:04.291Z,14.85
2022-10-15T03:44:37.686Z,15.25
2022-10-15T03:47:10.602Z,15.52
2022-10-15T03:49:49.009Z,14.77
2022-10-15T03:52:17.586Z,16.75
2022-10-15T03:54:46.930Z,14.40
2022-10-15T03:57:18.786Z,16.10
2022-10-15T03:59:51.432Z,13.80
2022-10-15T04:02:21.223Z,15.05
2022-10-15T04:04:49.044Z,15.57
2022-10-15T04:07:16.948Z,15.00
2022-10-15T04:09:44.558Z,14.73
2022-10-15T04:12:26.246Z,15.35
2022-10-15T04:14:54.219Z,14.88
2022-10-15T04:17:22.521Z,14.27
2022-10-15T04:19:51.296Z,15.50
2022-10-15T04:22:21.152Z,16.25
2022-10-15T04:24:53.194Z,14.60
2022-10-15T04:27:30.348Z,16.05
2022-10-15T04:30:12.285Z,16.42
2022-10-15T04:32:44.557Z,13.98
2022-10-15T04:35:12.928Z,14.30
2022-10-15T04:37:52.061Z,16.35
2022-10-15T04:40:20.560Z,16.95
2022-10-15T04:42:49.508Z,19.17
2022-10-15T04:45:17.158Z,17.35
2022-10-15T04:47:45.435Z,18.45
2022-10-15T04:50:15.317Z,18.90
2022-10-15T04:53:01.718Z,19.45
2022-10-15T04:55:33.386Z,17.92
2022-10-15T04:58:03.796Z,19.50
2022-10-15T05:00:31.827Z,17.77
2022-10-15T05:03:18.336Z,19.13
2022-10-15T05:05:54.507Z,17.88
2022-10-15T05:08:22.101Z,15.35
2022-10-15T05:11:08.245Z,17.20
2022-10-15T05:13:37.696Z,18.52
2022-10-15T05:16:14.813Z,18.10
2022-10-15T05:18:44.312Z,19.38
2022-10-15T05:21:12.907Z,17.67
2022-10-15T05:23:41.890Z,18.45
2022-10-15T05:26:20.682Z,18.08
2022-10-15T05:28:49.746Z,18.75
2022-10-15T05:31:27.472Z,15.98
2022-10-15T05:34:08.352Z,18.17
2022-10-15T05:36:43.752Z,20.05
2022-10-15T05:39:12.359Z,18.25
2022-10-15T05:41:45.274Z,18.10
2022-10-15T05:44:14.342Z,17.58
2022-10-15T05:46:42.582Z,18.83
2022-10-15T05:49:14.986Z,19.65
2022-10-15T05:51:51.116Z,21.00
2022-10-15T05:54:33.229Z,19.52
2022-10-15T05:57:00.816Z,19.52
2022-10-15T05:59:29.811Z,20.30
2022-10-15T06:01:57.413Z,18.73
2022-10-15T06:04:25.242Z,20.25
2022-10-15T06:06:52.929Z,21.17
2022-10-15T06:09:20.457Z,19.55
2022-10-15T06:11:48.053Z,19.40
2022-10-15T06:14:19.245Z,23.63
2022-10-15T06:16:50.641Z,20.00
2022-10-15T06:19:18.260Z,20.83
2022-10-15T06:21:45.930Z,17.92
2022-10-15T06:24:13.504Z,19.42
2022-10-15T06:26:41.055Z,20.08
2022-10-15T06:29:08.654Z,18.20
2022-10-15T06:31:36.241Z,17.95
2022-10-15T06:34:05.105Z,18.58
2022-10-15T06:36:32.882Z,18.75
2022-10-15T06:39:00.411Z,18.13
2022-10-15T06:41:27.946Z,18.10
2022-10-15T06:43:55.483Z,21.05
2022-10-15T06:46:23.070Z,19.77
2022-10-15T06:48:51.846Z,19.55
2022-10-15T06:51:20.737Z,19.42
2022-10-15T06:53:51.115Z,16.75
2022-10-15T06:56:18.954Z,18.27
2022-10-15T06:58:46.700Z,19.23
2022-10-15T07:01:14.351Z,17.67
2022-10-15T07:03:42.066Z,20.38
2022-10-15T07:06:10.580Z,18.92
2022-10-15T07:08:39.544Z,18.52
2022-10-15T07:11:08.745Z,18.90
2022-10-15T07:13:36.723Z,18.98
2022-10-15T07:16:06.142Z,20.52
2022-10-15T07:18:34.960Z,20.60
2022-10-15T07:21:02.822Z,17.70
2022-10-15T07:23:30.470Z,18.10
2022-10-15T07:26:00.152Z,21.02
2022-10-15T07:28:28.426Z,21.38
2022-10-15T07:30:56.033Z,18.88
2022-10-15T07:33:23.604Z,19.50
2022-10-15T07:36:00.172Z,16.52
2022-10-15T07:38:27.808Z,17.08
2022-10-15T07:40:59.994Z,16.45
2022-10-15T07:43:28.201Z,20.83
2022-10-15T07:45:56.150Z,17.65
2022-10-15T07:48:24.992Z,23.58
2022-10-15T07:50:55.584Z,19.90
2022-10-15T07:53:23.350Z,19.52
2022-10-15T07:55:55.422Z,19.83
2022-10-15T07:58:24.322Z,16.65
2022-10-15T08:00:51.833Z,19.00
2022-10-15T08:03:19.597Z,20.75
2022-10-15T08:05:47.182Z,15.40
2022-10-15T08:08:14.795Z,17.45
2022-10-15T08:10:42.362Z,16.73
2022-10-15T08:13:10.015Z,18.05
2022-10-15T08:15:41.298Z,15.68
2022-10-15T08:18:09.980Z,13.27
2022-10-15T08:20:38.055Z,13.50
2022-10-15T08:23:06.130Z,17.15
2022-10-15T08:25:33.758Z,14.25
2022-10-15T08:28:01.359Z,14.52
2022-10-15T08:30:28.943Z,13.27
2022-10-15T08:32:58.009Z,13.60
2022-10-15T08:35:26.622Z,12.80
2022-10-15T08:37:54.926Z,13.20
2022-10-15T08:40:22.918Z,12.57
2022-10-15T08:42:51.395Z,12.68
2022-10-15T08:45:23.086Z,14.18
2022-10-15T08:47:56.657Z,14.88
2022-10-15T08:50:35.362Z,13.65
2022-10-15T08:53:03.622Z,12.18
2022-10-15T08:55:39.247Z,12.23
2022-10-15T08:58:16.443Z,13.75
2022-10-15T09:00:47.555Z,13.52
2022-10-15T09:03:31.473Z,11.25
2022-10-15T09:06:08.443Z,12.40
2022-10-15T09:08:45.102Z,13.52
2022-10-15T09:11:20.212Z,13.77
2022-10-15T09:13:49.067Z,14.77
2022-10-15T09:16:28.032Z,12.50
2022-10-15T09:18:57.026Z,12.32
2022-10-15T09:21:26.313Z,12.77
2022-10-15T09:23:56.462Z,12.52
2022-10-15T09:26:29.328Z,14.90
2022-10-15T09:29:03.685Z,13.30
2022-10-15T09:31:42.847Z,11.32
2022-10-15T09:34:19.793Z,13.95
2022-10-15T09:36:53.569Z,12.35
2022-10-15T09:39:42.285Z,9.63
2022-10-15T09:42:21.442Z,11.90
2022-10-15T09:44:49.632Z,10.55
2022-10-15T09:47:23.287Z,11.55
2022-10-15T09:49:50.890Z,14.40
2022-10-15T09:52:26.333Z,12.02
2022-10-15T09:55:05.747Z,13.25
2022-10-15T09:57:35.828Z,12.30
2022-10-15T10:00:09.468Z,10.45
2022-10-15T10:02:44.561Z,11.35
2022-10-15T10:05:21.499Z,11.10
2022-10-15T10:07:50.351Z,10.25
2022-10-15T10:10:26.149Z,9.52
2022-10-15T10:12:55.303Z,9.25
2022-10-15T10:15:33.915Z,8.20
2022-10-15T10:18:01.693Z,9.45
2022-10-15T10:20:30.964Z,8.98
2022-10-15T10:23:01.618Z,14.02
2022-10-15T10:25:33.459Z,9.48
2022-10-15T10:28:07.766Z,9.55
2022-10-15T10:30:38.708Z,7.93
2022-10-15T10:33:06.904Z,8.80
2022-10-15T10:35:44.954Z,9.85
2022-10-15T10:38:22.089Z,9.75
2022-10-15T10:40:55.290Z,8.75
2022-10-15T10:43:26.612Z,8.48
2022-10-15T10:46:00.154Z,8.90
2022-10-15T10:48:29.720Z,9.52
2022-10-15T10:51:09.083Z,7.90
2022-10-15T10:53:47.292Z,6.22
2022-10-15T10:56:15.483Z,7.65
2022-10-15T10:58:43.400Z,7.03
2022-10-15T11:01:14.175Z,7.38
2022-10-15T11:03:44.982Z,7.47
2022-10-15T11:06:36.481Z,6.93
2022-10-15T11:09:21.340Z,7.35
2022-10-15T11:12:00.769Z,7.00
2022-10-15T11:14:35.965Z,7.07
2022-10-15T11:17:17.743Z,7.43
2022-10-15T11:20:13.161Z,7.15
2022-10-15T11:22:53.960Z,7.22
2022-10-15T11:25:35.157Z,5.35
2022-10-15T11:28:20.284Z,5.50
2022-10-15T11:30:53.543Z,5.60
2022-10-15T11:33:34.395Z,5.05
2022-10-15T11:36:17.866Z,4.00
2022-10-15T11:38:52.094Z,3.80
2022-10-15T11:41:34.502Z,2.90
2022-10-15T11:44:22.632Z,2.78
2022-10-15T11:46:59.890Z,3.30
2022-10-15T11:49:41.130Z,2.65
2022-10-15T11:52:21.123Z,3.33
2022-10-15T11:55:01.560Z,3.20
2022-10-15T11:57:32.850Z,3.15
2022-10-15T12:00:06.612Z,2.33
2022-10-15T12:02:40.518Z,2.80
2022-10-15T12:05:10.950Z,3.03
2022-10-15T12:07:42.376Z,3.33
2022-10-15T12:10:30.886Z,3.33
2022-10-15T12:13:05.861Z,2.80
2022-10-15T12:15:40.309Z,2.60
2022-10-15T12:18:18.604Z,3.00
2022-10-15T12:20:46.555Z,3.30
2022-10-15T12:23:25.871Z,4.00
2022-10-15T12:25:55.113Z,3.75
2022-10-15T12:28:27.990Z,3.10
2022-10-15T12:31:03.164Z,4.10
2022-10-15T12:33:35.306Z,3.33
2022-10-15T12:36:09.260Z,3.10
2022-10-15T12:38:39.842Z,3.03
2022-10-15T12:41:11.085Z,3.50
2022-10-15T12:43:43.940Z,3.20
2022-10-15T12:46:12.981Z,4.00
2022-10-15T12:48:42.937Z,3.80
2022-10-15T12:51:41.308Z,3.50
2022-10-15T12:54:35.101Z,3.95
2022-10-15T12:57:04.860Z,3.53
2022-10-15T12:59:58.075Z,4.28
2022-10-15T13:02:39.030Z,3.75
2022-10-15T13:05:12.836Z,3.25
2022-10-15T13:07:41.805Z,3.78
2022-10-15T13:10:24.169Z,3.25
2022-10-15T13:12:55.157Z,3.53
2022-10-15T13:15:27.274Z,3.83
2022-10-15T13:17:56.604Z,4.22
2022-10-15T13:20:33.893Z,3.60
2022-10-15T13:23:29.020Z,4.45
2022-10-15T13:26:17.039Z,4.72
2022-10-15T13:28:45.450Z,3.67
2022-10-15T13:31:27.661Z,4.55
2022-10-15T13:34:01.397Z,3.97
2022-10-15T13:36:32.799Z,4.05
2022-10-15T13:39:03.610Z,3.80
2022-10-15T13:41:34.472Z,4.32
2022-10-15T13:44:03.066Z,12.25
2022-10-15T13:46:38.827Z,4.63
2022-10-15T13:49:12.758Z,5.25
2022-10-15T13:51:43.496Z,5.05
2022-10-15T13:54:15.937Z,5.32
2022-10-15T13:56:47.911Z,5.15
2022-10-15T13:59:20.104Z,5.07
2022-10-15T14:01:52.374Z,5.78
2022-10-15T14:04:22.094Z,5.10
2022-10-15T14:06:57.084Z,6.55
2022-10-15T14:09:30.526Z,6.97
2022-10-15T14:12:02.228Z,5.70
2022-10-15T14:14:34.021Z,6.78
2022-10-15T14:17:06.324Z,7.90
2022-10-15T14:19:36.642Z,8.52
2022-10-15T14:22:04.993Z,7.95
2022-10-15T14:24:35.147Z,8.35
2022-10-15T14:27:06.209Z,7.57
2022-10-15T14:29:39.952Z,7.63
2022-10-15T14:32:27.408Z,7.82
2022-10-15T14:34:56.323Z,7.38
2022-10-15T14:37:41.205Z,7.35
2022-10-15T14:40:26.843Z,7.50
2022-10-15T14:43:04.700Z,8.32
2022-10-15T14:45:40.267Z,8.10
2022-10-15T14:48:13.297Z,9.07
2022-10-15T14:50:44.420Z,10.20
2022-10-15T14:53:18.618Z,9.90
2022-10-15T14:55:52.264Z,8.57
2022-10-15T14:58:23.149Z,8.15
2022-10-15T15:00:57.009Z,8.80
2022-10-15T15:03:30.865Z,8.85
2022-10-15T15:05:59.238Z,9.15
2022-10-15T15:08:27.160Z,8.60
2022-10-15T15:10:57.289Z,9.88
2022-10-15T15:13:26.616Z,8.52
2022-10-15T15:15:54.587Z,9.48
2022-10-15T15:18:22.717Z,9.40
2022-10-15T15:20:52.357Z,10.18
2022-10-15T15:23:22.645Z,8.80
2022-10-15T15:25:51.279Z,8.65
2022-10-15T15:28:20.851Z,9.80
2022-10-15T15:30:56.105Z,7.95
2022-10-15T15:33:23.822Z,9.60
2022-10-15T15:35:54.773Z,8.00
2022-10-15T15:38:24.103Z,10.40
2022-10-15T15:40:52.073Z,8.40
2022-10-15T15:43:20.254Z,8.25
2022-10-15T15:45:48.150Z,9.30
2022-10-15T15:48:16.915Z,8.95
2022-10-15T15:50:44.561Z,7.95
2022-10-15T15:53:13.818Z,8.30
2022-10-15T15:55:41.349Z,8.45
2022-10-15T15:58:08.942Z,8.70
2022-10-15T16:00:36.541Z,9.55
2022-10-15T16:03:04.208Z,9.40
2022-10-15T16:05:31.793Z,10.13
2022-10-15T16:07:59.475Z,10.48
2022-10-15T16:10:28.500Z,9.55
2022-10-15T16:12:56.569Z,10.85
2022-10-15T16:15:24.614Z,10.93
2022-10-15T16:17:52.267Z,10.65
2022-10-15T16:20:20.170Z,11.05
2022-10-15T16:22:50.552Z,9.32
2022-10-15T16:25:18.227Z,11.10
2022-10-15T16:27:48.689Z,9.57
2022-10-15T16:30:17.035Z,10.90
2022-10-15T16:32:44.745Z,11.25
2022-10-15T16:35:12.366Z,10.63
2022-10-15T16:37:40.190Z,9.40
2022-10-15T16:40:09.313Z,8.60
2022-10-15T16:42:36.964Z,8.70
2022-10-15T16:45:07.076Z,7.63
2022-10-15T16:47:34.753Z,8.65
2022-10-15T16:50:02.548Z,9.07
2022-10-15T16:52:30.292Z,9.05
2022-10-15T16:54:57.879Z,8.13
2022-10-15T16:57:25.560Z,9.00
2022-10-15T16:59:53.243Z,8.45
2022-10-15T17:02:22.411Z,8.23
2022-10-15T17:04:50.477Z,8.00
2022-10-15T17:07:18.063Z,7.95
2022-10-15T17:12:16.096Z,8.13
2022-10-15T17:14:51.481Z,7.63
2022-10-15T17:17:19.051Z,7.07
2022-10-15T17:19:47.928Z,7.55
2022-10-15T17:22:15.469Z,6.75
2022-10-15T17:24:43.094Z,6.50
2022-10-15T17:27:10.750Z,7.10
2022-10-15T17:29:38.350Z,7.28
2022-10-15T17:32:05.960Z,8.13
2022-10-15T17:34:34.250Z,7.20
2022-10-15T17:37:05.618Z,7.30
2022-10-15T17:39:33.207Z,7.05
2022-10-15T17:42:01.672Z,7.45
2022-10-15T17:44:29.453Z,8.15
2022-10-15T17:46:57.024Z,8.18
2022-10-15T17:49:28.691Z,7.28
2022-10-15T17:51:56.291Z,7.55
2022-10-15T17:54:25.205Z,6.90
2022-10-15T17:56:52.724Z,6.63
2022-10-15T17:59:20.263Z,8.05
2022-10-15T18:02:03.280Z,6.88
2022-10-15T18:04:34.959Z,6.43
2022-10-15T18:07:02.823Z,7.10
2022-10-15T18:09:31.953Z,6.53
2022-10-15T18:12:01.310Z,6.90
2022-10-15T18:14:31.213Z,6.82
2022-10-15T18:16:58.819Z,6.93
2022-10-15T18:19:26.772Z,7.25
2022-10-15T18:21:55.265Z,6.60
2022-10-15T18:24:23.579Z,5.80
2022-10-15T18:26:53.015Z,6.63
2022-10-15T18:29:22.272Z,6.10
2022-10-15T18:31:54.857Z,5.55
2022-10-15T18:34:25.328Z,5.97
2022-10-15T18:36:52.905Z,5.50
2022-10-15T18:39:23.145Z,4.95
2022-10-15T18:41:52.221Z,4.45
2022-10-15T18:44:21.486Z,4.45
2022-10-15T18:46:49.090Z,4.60
2022-10-15T18:49:19.167Z,3.88
2022-10-15T18:51:50.647Z,4.20
2022-10-15T18:54:18.738Z,4.35
2022-10-15T18:56:46.596Z,4.40
2022-10-15T18:59:17.329Z,4.28
2022-10-15T19:01:45.005Z,4.82
2022-10-15T19:04:15.316Z,5.18
2022-10-15T19:06:44.709Z,4.80
2022-10-15T19:09:14.809Z,4.78
2022-10-15T19:11:44.799Z,4.65
2022-10-15T19:14:12.858Z,4.50
2022-10-15T19:16:41.856Z,4.32
2022-10-15T19:19:15.479Z,4.57
2022-10-15T19:21:43.207Z,5.32
2022-10-15T19:24:10.804Z,5.22
2022-10-15T19:26:38.467Z,4.68
2022-10-15T19:29:06.525Z,4.28
2022-10-15T19:31:36.488Z,5.57
2022-10-15T19:34:05.816Z,4.18
2022-10-15T19:36:35.980Z,4.70
2022-10-15T19:39:06.784Z,4.65
2022-10-15T19:41:36.764Z,4.50
2022-10-15T19:44:04.845Z,4.65
2022-10-15T19:46:32.552Z,4.90
2022-10-15T19:49:00.120Z,6.05
2022-10-15T19:51:29.109Z,4.82
2022-10-15T19:53:59.824Z,4.78
2022-10-15T19:56:30.891Z,5.68
2022-10-15T19:59:00.826Z,5.28
2022-10-15T20:01:30.286Z,5.75
2022-10-15T20:04:03.168Z,6.15
2022-10-15T20:06:35.540Z,6.93
2022-10-15T20:09:03.136Z,6.32
2022-10-15T20:11:32.484Z,5.97
2022-10-15T20:14:00.412Z,7.32
2022-10-15T20:16:32.506Z,5.93
2022-10-15T20:19:02.116Z,5.85
2022-10-15T20:21:29.720Z,5.93
2022-10-15T20:23:58.854Z,6.10
2022-10-15T20:26:26.589Z,6.50
2022-10-15T20:28:54.494Z,6.03
2022-10-15T20:31:24.778Z,5.93
2022-10-15T20:33:52.332Z,7.03
2022-10-15T20:36:23.897Z,7.10
2022-10-15T20:38:52.023Z,7.20
2022-10-15T20:41:21.470Z,6.38
2022-10-15T20:43:54.576Z,6.90
2022-10-15T20:46:26.563Z,6.45
2022-10-15T20:48:56.632Z,6.97
2022-10-15T20:51:28.368Z,7.63
2022-10-15T20:53:57.848Z,7.82
2022-10-15T20:56:27.105Z,7.18
2022-10-15T20:58:54.844Z,9.18
2022-10-15T21:01:22.533Z,9.43
2022-10-15T21:03:50.166Z,8.90
2022-10-15T21:06:18.327Z,8.90
2022-10-15T21:08:45.840Z,8.00
2022-10-15T21:11:13.466Z,9.05
2022-10-15T21:13:42.423Z,8.57
2022-10-15T21:16:10.148Z,9.45
2022-10-15T21:18:38.372Z,9.70
2022-10-15T21:21:10.329Z,10.20
2022-10-15T21:23:39.348Z,9.50
2022-10-15T21:26:08.183Z,10.80
2022-10-15T21:28:36.558Z,9.38
2022-10-15T21:31:10.329Z,8.05
2022-10-15T21:33:39.954Z,9.55
2022-10-15T21:36:12.220Z,8.40
2022-10-15T21:38:40.125Z,9.65
2022-10-15T21:41:07.660Z,9.30
2022-10-15T21:43:35.621Z,9.20
2022-10-15T21:46:09.442Z,7.60
2022-10-15T21:48:38.241Z,9.02
2022-10-15T21:51:09.229Z,7.03
2022-10-15T21:53:37.683Z,8.48
2022-10-15T21:56:07.954Z,8.23
2022-10-15T21:58:36.336Z,8.95
2022-10-15T22:01:14.677Z,8.18
2022-10-15T22:03:45.806Z,6.38
2022-10-15T22:06:13.773Z,6.57
2022-10-15T22:08:41.839Z,7.65
2022-10-15T22:11:11.980Z,6.40
2022-10-15T22:13:41.067Z,6.43
2022-10-15T22:16:11.176Z,6.72
2022-10-15T22:18:40.076Z,8.00
2022-10-15T22:21:15.508Z,6.85
2022-10-15T22:23:44.682Z,7.10
2022-10-15T22:26:13.296Z,6.45
2022-10-15T22:28:41.849Z,5.90
2022-10-15T22:31:13.206Z,6.47
2022-10-15T22:33:42.075Z,5.93
2022-10-15T22:36:15.390Z,5.80
2022-10-15T22:38:45.078Z,6.15
2022-10-15T22:41:13.437Z,5.50
2022-10-15T22:43:41.550Z,5.03
2022-10-15T22:46:09.224Z,6.20
2022-10-15T22:48:40.181Z,6.32
2022-10-15T22:51:10.445Z,6.07
2022-10-15T22:53:38.246Z,6.70
2022-10-15T22:56:08.226Z,8.77
2022-10-15T22:58:36.866Z,10.40
2022-10-15T23:01:08.987Z,6.85
2022-10-15T23:03:38.531Z,6.55
2022-10-15T23:06:06.609Z,8.23
2022-10-15T23:08:35.036Z,6.65
2022-10-15T23:11:09.427Z,7.78
2022-10-15T23:13:37.867Z,7.30
2022-10-15T23:16:11.481Z,8.48
2022-10-15T23:18:41.657Z,8.13
2022-10-15T23:21:13.672Z,8.90
2022-10-15T23:23:41.586Z,8.57
2022-10-15T23:26:12.527Z,10.52
2022-10-15T23:28:40.176Z,7.85
2022-10-15T23:31:08.248Z,12.73
2022-10-15T23:33:35.825Z,8.95
2022-10-15T23:36:05.771Z,9.73
2022-10-15T23:38:33.436Z,7.05
2022-10-15T23:41:02.301Z,7.40
2022-10-15T23:43:30.441Z,5.82
2022-10-15T23:45:58.498Z,6.85
2022-10-15T23:48:26.781Z,6.45
2022-10-15T23:50:56.936Z,6.03
2022-10-15T23:53:28.495Z,6.75
2022-10-15T23:55:56.107Z,6.72
2022-10-15T23:58:24.026Z,6.20
